sensor_id;sensor_type;location;lat;lon;timestamp;P1;durP1;ratioP1;P2;durP2;ratioP2
71038;SDS011;58692;43.212;27.908;2023-06-10T00:01:49;25.63;;;18.53;;
71038;SDS011;58692;43.212;27.908;2023-06-10T00:04:14;21.52;;;13.23;;
71038;SDS011;58692;43.212;27.908;2023-06-10T00:06:42;20.13;;;10.77;;
71038;SDS011;58692;43.212;27.908;2023-06-10T00:09:08;19.83;;;10.20;;
71038;SDS011;58692;43.212;27.908;2023-06-10T00:11:35;19.35;;;9.23;;
71038;SDS011;58692;43.212;27.908;2023-06-10T00:14:02;18.00;;;8.82;;
71038;SDS011;58692;43.212;27.908;2023-06-10T00:16:28;18.88;;;8.80;;
71038;SDS011;58692;43.212;27.908;2023-06-10T00:18:54;17.83;;;9.23;;
71038;SDS011;58692;43.212;27.908;2023-06-10T00:21:21;23.63;;;10.05;;
71038;SDS011;58692;43.212;27.908;2023-06-10T00:23:47;23.02;;;10.38;;
71038;SDS011;58692;43.212;27.908;2023-06-10T00:26:13;30.23;;;10.98;;
71038;SDS011;58692;43.212;27.908;2023-06-10T00:28:39;23.17;;;12.90;;
71038;SDS011;58692;43.212;27.908;2023-06-10T00:31:04;28.93;;;13.57;;
71038;SDS011;58692;43.212;27.908;2023-06-10T00:33:30;28.15;;;15.43;;
71038;SDS011;58692;43.212;27.908;2023-06-10T00:35:56;32.63;;;17.87;;
71038;SDS011;58692;43.212;27.908;2023-06-10T00:38:21;35.90;;;19.48;;
71038;SDS011;58692;43.212;27.908;2023-06-10T00:40:47;35.73;;;19.73;;
71038;SDS011;58692;43.212;27.908;2023-06-10T00:43:12;30.70;;;18.70;;
71038;SDS011;58692;43.212;27.908;2023-06-10T00:45:38;31.98;;;17.40;;
71038;SDS011;58692;43.212;27.908;2023-06-10T00:48:04;28.90;;;16.97;;
71038;SDS011;58692;43.212;27.908;2023-06-10T00:50:30;27.83;;;16.02;;
71038;SDS011;58692;43.212;27.908;2023-06-10T00:52:56;23.75;;;14.27;;
71038;SDS011;58692;43.212;27.908;2023-06-10T00:55:23;22.52;;;13.77;;
71038;SDS011;58692;43.212;27.908;2023-06-10T00:57:49;22.20;;;12.80;;
71038;SDS011;58692;43.212;27.908;2023-06-10T01:00:16;21.75;;;12.80;;
71038;SDS011;58692;43.212;27.908;2023-06-10T01:02:42;29.02;;;17.08;;
71038;SDS011;58692;43.212;27.908;2023-06-10T01:05:08;29.03;;;14.70;;
71038;SDS011;58692;43.212;27.908;2023-06-10T01:07:39;22.63;;;13.57;;
71038;SDS011;58692;43.212;27.908;2023-06-10T01:10:11;24.23;;;12.40;;
71038;SDS011;58692;43.212;27.908;2023-06-10T01:12:45;24.85;;;11.18;;
71038;SDS011;58692;43.212;27.908;2023-06-10T01:15:17;20.67;;;11.25;;
71038;SDS011;58692;43.212;27.908;2023-06-10T01:18:04;25.10;;;11.70;;
71038;SDS011;58692;43.212;27.908;2023-06-10T01:20:29;24.90;;;12.57;;
71038;SDS011;58692;43.212;27.908;2023-06-10T01:22:57;23.13;;;12.40;;
71038;SDS011;58692;43.212;27.908;2023-06-10T01:25:24;26.48;;;14.23;;
71038;SDS011;58692;43.212;27.908;2023-06-10T01:27:57;25.88;;;14.05;;
71038;SDS011;58692;43.212;27.908;2023-06-10T01:30:30;26.57;;;15.10;;
71038;SDS011;58692;43.212;27.908;2023-06-10T01:33:10;35.72;;;15.68;;
71038;SDS011;58692;43.212;27.908;2023-06-10T01:35:40;31.17;;;16.73;;
71038;SDS011;58692;43.212;27.908;2023-06-10T01:38:08;38.65;;;18.88;;
71038;SDS011;58692;43.212;27.908;2023-06-10T01:40:35;41.58;;;21.98;;
71038;SDS011;58692;43.212;27.908;2023-06-10T01:43:01;43.60;;;21.53;;
71038;SDS011;58692;43.212;27.908;2023-06-10T01:45:27;44.08;;;21.42;;
71038;SDS011;58692;43.212;27.908;2023-06-10T01:47:53;35.80;;;20.65;;
71038;SDS011;58692;43.212;27.908;2023-06-10T01:50:18;43.47;;;21.10;;
71038;SDS011;58692;43.212;27.908;2023-06-10T01:52:44;36.93;;;19.03;;
71038;SDS011;58692;43.212;27.908;2023-06-10T01:55:10;46.88;;;22.42;;
71038;SDS011;58692;43.212;27.908;2023-06-10T01:57:36;33.87;;;18.13;;
71038;SDS011;58692;43.212;27.908;2023-06-10T02:00:01;30.08;;;16.10;;
71038;SDS011;58692;43.212;27.908;2023-06-10T02:02:28;36.13;;;14.83;;
71038;SDS011;58692;43.212;27.908;2023-06-10T02:04:53;28.80;;;14.43;;
71038;SDS011;58692;43.212;27.908;2023-06-10T02:07:19;23.00;;;13.00;;
71038;SDS011;58692;43.212;27.908;2023-06-10T02:09:44;29.03;;;12.33;;
71038;SDS011;58692;43.212;27.908;2023-06-10T02:12:10;22.00;;;11.70;;
71038;SDS011;58692;43.212;27.908;2023-06-10T02:14:36;22.37;;;12.37;;
71038;SDS011;58692;43.212;27.908;2023-06-10T02:17:02;26.83;;;13.45;;
71038;SDS011;58692;43.212;27.908;2023-06-10T02:19:28;27.08;;;13.43;;
71038;SDS011;58692;43.212;27.908;2023-06-10T02:21:53;27.83;;;14.10;;
71038;SDS011;58692;43.212;27.908;2023-06-10T02:24:20;30.77;;;14.23;;
71038;SDS011;58692;43.212;27.908;2023-06-10T02:26:45;24.40;;;13.53;;
71038;SDS011;58692;43.212;27.908;2023-06-10T02:29:11;25.63;;;13.80;;
71038;SDS011;58692;43.212;27.908;2023-06-10T02:31:36;27.70;;;14.60;;
71038;SDS011;58692;43.212;27.908;2023-06-10T02:34:02;32.92;;;15.95;;
71038;SDS011;58692;43.212;27.908;2023-06-10T02:36:29;36.20;;;18.25;;
71038;SDS011;58692;43.212;27.908;2023-06-10T02:38:54;30.53;;;16.63;;
71038;SDS011;58692;43.212;27.908;2023-06-10T02:41:20;28.65;;;16.45;;
71038;SDS011;58692;43.212;27.908;2023-06-10T02:43:47;27.70;;;16.92;;
71038;SDS011;58692;43.212;27.908;2023-06-10T02:46:12;29.90;;;17.03;;
71038;SDS011;58692;43.212;27.908;2023-06-10T02:48:45;31.20;;;16.75;;
71038;SDS011;58692;43.212;27.908;2023-06-10T02:51:11;30.30;;;17.83;;
71038;SDS011;58692;43.212;27.908;2023-06-10T02:53:37;36.20;;;17.70;;
71038;SDS011;58692;43.212;27.908;2023-06-10T02:56:02;32.47;;;18.00;;
71038;SDS011;58692;43.212;27.908;2023-06-10T02:58:28;35.23;;;18.67;;
71038;SDS011;58692;43.212;27.908;2023-06-10T03:00:54;34.17;;;18.63;;
71038;SDS011;58692;43.212;27.908;2023-06-10T03:03:19;34.00;;;18.93;;
71038;SDS011;58692;43.212;27.908;2023-06-10T03:05:47;29.20;;;18.23;;
71038;SDS011;58692;43.212;27.908;2023-06-10T03:08:13;29.15;;;17.45;;
71038;SDS011;58692;43.212;27.908;2023-06-10T03:10:38;32.97;;;16.50;;
71038;SDS011;58692;43.212;27.908;2023-06-10T03:13:04;26.45;;;14.93;;
71038;SDS011;58692;43.212;27.908;2023-06-10T03:15:30;24.07;;;13.67;;
71038;SDS011;58692;43.212;27.908;2023-06-10T03:17:58;21.70;;;12.88;;
71038;SDS011;58692;43.212;27.908;2023-06-10T03:20:25;22.55;;;12.90;;
71038;SDS011;58692;43.212;27.908;2023-06-10T03:22:52;22.65;;;11.93;;
71038;SDS011;58692;43.212;27.908;2023-06-10T03:25:18;22.87;;;13.00;;
71038;SDS011;58692;43.212;27.908;2023-06-10T03:27:46;19.88;;;11.77;;
71038;SDS011;58692;43.212;27.908;2023-06-10T03:30:12;22.23;;;13.38;;
71038;SDS011;58692;43.212;27.908;2023-06-10T03:32:38;25.05;;;13.43;;
71038;SDS011;58692;43.212;27.908;2023-06-10T03:35:03;23.77;;;12.83;;
71038;SDS011;58692;43.212;27.908;2023-06-10T03:37:29;22.65;;;12.80;;
71038;SDS011;58692;43.212;27.908;2023-06-10T03:39:55;25.47;;;12.27;;
71038;SDS011;58692;43.212;27.908;2023-06-10T03:42:20;20.43;;;11.87;;
71038;SDS011;58692;43.212;27.908;2023-06-10T03:44:46;24.30;;;11.83;;
71038;SDS011;58692;43.212;27.908;2023-06-10T03:47:11;19.50;;;11.50;;
71038;SDS011;58692;43.212;27.908;2023-06-10T03:49:38;19.35;;;11.55;;
71038;SDS011;58692;43.212;27.908;2023-06-10T03:52:06;23.27;;;11.32;;
71038;SDS011;58692;43.212;27.908;2023-06-10T03:54:31;21.65;;;11.70;;
71038;SDS011;58692;43.212;27.908;2023-06-10T03:56:59;20.17;;;12.00;;
71038;SDS011;58692;43.212;27.908;2023-06-10T03:59:25;21.88;;;12.38;;
71038;SDS011;58692;43.212;27.908;2023-06-10T04:01:50;23.67;;;12.63;;
71038;SDS011;58692;43.212;27.908;2023-06-10T04:04:16;26.77;;;12.70;;
71038;SDS011;58692;43.212;27.908;2023-06-10T04:06:42;28.50;;;15.73;;
71038;SDS011;58692;43.212;27.908;2023-06-10T04:09:08;26.17;;;15.93;;
71038;SDS011;58692;43.212;27.908;2023-06-10T04:11:35;29.33;;;16.33;;
71038;SDS011;58692;43.212;27.908;2023-06-10T04:14:00;27.98;;;16.40;;
71038;SDS011;58692;43.212;27.908;2023-06-10T04:16:27;27.17;;;17.07;;
71038;SDS011;58692;43.212;27.908;2023-06-10T04:18:52;28.33;;;16.10;;
71038;SDS011;58692;43.212;27.908;2023-06-10T04:21:18;32.22;;;17.10;;
71038;SDS011;58692;43.212;27.908;2023-06-10T04:23:44;29.03;;;16.30;;
71038;SDS011;58692;43.212;27.908;2023-06-10T04:26:09;31.27;;;15.97;;
71038;SDS011;58692;43.212;27.908;2023-06-10T04:28:37;24.50;;;15.90;;
71038;SDS011;58692;43.212;27.908;2023-06-10T04:31:02;24.33;;;15.40;;
71038;SDS011;58692;43.212;27.908;2023-06-10T04:33:29;25.20;;;15.70;;
71038;SDS011;58692;43.212;27.908;2023-06-10T04:35:56;26.88;;;15.27;;
71038;SDS011;58692;43.212;27.908;2023-06-10T04:38:22;23.00;;;14.57;;
71038;SDS011;58692;43.212;27.908;2023-06-10T04:40:48;26.10;;;14.30;;
71038;SDS011;58692;43.212;27.908;2023-06-10T04:43:13;26.75;;;15.45;;
71038;SDS011;58692;43.212;27.908;2023-06-10T04:45:39;25.50;;;15.63;;
71038;SDS011;58692;43.212;27.908;2023-06-10T04:48:05;21.48;;;14.50;;
71038;SDS011;58692;43.212;27.908;2023-06-10T04:50:31;23.70;;;14.30;;
71038;SDS011;58692;43.212;27.908;2023-06-10T04:52:58;25.42;;;14.15;;
71038;SDS011;58692;43.212;27.908;2023-06-10T04:55:23;24.90;;;14.43;;
71038;SDS011;58692;43.212;27.908;2023-06-10T04:57:50;24.10;;;14.45;;
71038;SDS011;58692;43.212;27.908;2023-06-10T05:00:16;28.00;;;14.33;;
71038;SDS011;58692;43.212;27.908;2023-06-10T05:02:42;25.80;;;14.77;;
71038;SDS011;58692;43.212;27.908;2023-06-10T05:05:07;33.60;;;23.27;;
71038;SDS011;58692;43.212;27.908;2023-06-10T05:07:33;37.17;;;25.77;;
71038;SDS011;58692;43.212;27.908;2023-06-10T05:09:59;27.70;;;17.37;;
71038;SDS011;58692;43.212;27.908;2023-06-10T05:12:25;28.57;;;17.33;;
71038;SDS011;58692;43.212;27.908;2023-06-10T05:14:51;27.27;;;14.00;;
71038;SDS011;58692;43.212;27.908;2023-06-10T05:17:16;21.80;;;12.20;;
71038;SDS011;58692;43.212;27.908;2023-06-10T05:19:42;18.85;;;12.07;;
71038;SDS011;58692;43.212;27.908;2023-06-10T05:22:08;23.08;;;10.90;;
71038;SDS011;58692;43.212;27.908;2023-06-10T05:24:34;22.20;;;10.57;;
71038;SDS011;58692;43.212;27.908;2023-06-10T05:26:59;22.10;;;11.15;;
71038;SDS011;58692;43.212;27.908;2023-06-10T05:29:25;22.63;;;11.27;;
71038;SDS011;58692;43.212;27.908;2023-06-10T05:31:51;21.83;;;10.77;;
71038;SDS011;58692;43.212;27.908;2023-06-10T05:34:16;20.08;;;11.00;;
71038;SDS011;58692;43.212;27.908;2023-06-10T05:36:43;21.20;;;10.32;;
71038;SDS011;58692;43.212;27.908;2023-06-10T05:39:09;17.37;;;10.17;;
71038;SDS011;58692;43.212;27.908;2023-06-10T05:41:35;22.27;;;9.30;;
71038;SDS011;58692;43.212;27.908;2023-06-10T05:44:00;17.77;;;10.25;;
71038;SDS011;58692;43.212;27.908;2023-06-10T05:46:26;19.17;;;10.17;;
71038;SDS011;58692;43.212;27.908;2023-06-10T05:48:52;20.87;;;9.67;;
71038;SDS011;58692;43.212;27.908;2023-06-10T05:51:17;18.35;;;10.57;;
71038;SDS011;58692;43.212;27.908;2023-06-10T05:53:43;20.50;;;10.13;;
71038;SDS011;58692;43.212;27.908;2023-06-10T05:56:08;17.33;;;10.10;;
71038;SDS011;58692;43.212;27.908;2023-06-10T05:58:34;15.25;;;9.55;;
71038;SDS011;58692;43.212;27.908;2023-06-10T06:00:59;21.03;;;10.37;;
71038;SDS011;58692;43.212;27.908;2023-06-10T06:03:25;19.60;;;10.77;;
71038;SDS011;58692;43.212;27.908;2023-06-10T06:05:50;15.90;;;11.33;;
71038;SDS011;58692;43.212;27.908;2023-06-10T06:08:16;18.80;;;12.40;;
71038;SDS011;58692;43.212;27.908;2023-06-10T06:10:44;19.20;;;11.20;;
71038;SDS011;58692;43.212;27.908;2023-06-10T06:13:10;19.52;;;11.43;;
71038;SDS011;58692;43.212;27.908;2023-06-10T06:15:35;19.27;;;12.17;;
71038;SDS011;58692;43.212;27.908;2023-06-10T06:18:01;20.87;;;11.47;;
71038;SDS011;58692;43.212;27.908;2023-06-10T06:20:26;18.92;;;11.73;;
71038;SDS011;58692;43.212;27.908;2023-06-10T06:22:52;18.43;;;11.20;;
71038;SDS011;58692;43.212;27.908;2023-06-10T06:25:17;25.08;;;11.27;;
71038;SDS011;58692;43.212;27.908;2023-06-10T06:27:43;22.67;;;11.43;;
71038;SDS011;58692;43.212;27.908;2023-06-10T06:30:08;19.27;;;10.63;;
71038;SDS011;58692;43.212;27.908;2023-06-10T06:32:34;18.45;;;10.57;;
71038;SDS011;58692;43.212;27.908;2023-06-10T06:35:00;18.80;;;10.77;;
71038;SDS011;58692;43.212;27.908;2023-06-10T06:37:25;19.48;;;9.18;;
71038;SDS011;58692;43.212;27.908;2023-06-10T06:39:51;14.10;;;7.70;;
71038;SDS011;58692;43.212;27.908;2023-06-10T06:42:18;16.92;;;8.45;;
71038;SDS011;58692;43.212;27.908;2023-06-10T06:44:44;15.13;;;8.35;;
71038;SDS011;58692;43.212;27.908;2023-06-10T06:47:10;16.63;;;9.43;;
71038;SDS011;58692;43.212;27.908;2023-06-10T06:49:35;13.93;;;9.23;;
71038;SDS011;58692;43.212;27.908;2023-06-10T06:52:01;16.53;;;9.33;;
71038;SDS011;58692;43.212;27.908;2023-06-10T06:54:27;16.03;;;9.90;;
71038;SDS011;58692;43.212;27.908;2023-06-10T06:56:53;17.98;;;9.48;;
71038;SDS011;58692;43.212;27.908;2023-06-10T06:59:18;18.70;;;9.60;;
71038;SDS011;58692;43.212;27.908;2023-06-10T07:01:44;14.32;;;9.02;;
71038;SDS011;58692;43.212;27.908;2023-06-10T07:04:12;15.23;;;9.90;;
71038;SDS011;58692;43.212;27.908;2023-06-10T07:06:39;18.43;;;10.50;;
71038;SDS011;58692;43.212;27.908;2023-06-10T07:09:04;18.35;;;10.13;;
71038;SDS011;58692;43.212;27.908;2023-06-10T07:11:30;17.63;;;8.93;;
71038;SDS011;58692;43.212;27.908;2023-06-10T07:13:56;15.95;;;9.10;;
71038;SDS011;58692;43.212;27.908;2023-06-10T07:16:22;14.23;;;7.00;;
71038;SDS011;58692;43.212;27.908;2023-06-10T07:18:47;16.30;;;7.55;;
71038;SDS011;58692;43.212;27.908;2023-06-10T07:21:13;13.97;;;6.70;;
71038;SDS011;58692;43.212;27.908;2023-06-10T07:23:41;14.90;;;6.57;;
71038;SDS011;58692;43.212;27.908;2023-06-10T07:26:07;10.77;;;4.57;;
71038;SDS011;58692;43.212;27.908;2023-06-10T07:28:36;8.70;;;3.95;;
71038;SDS011;58692;43.212;27.908;2023-06-10T07:31:02;8.20;;;4.25;;
71038;SDS011;58692;43.212;27.908;2023-06-10T07:33:28;12.55;;;5.40;;
71038;SDS011;58692;43.212;27.908;2023-06-10T07:35:53;12.30;;;4.57;;
71038;SDS011;58692;43.212;27.908;2023-06-10T07:38:18;11.37;;;4.57;;
71038;SDS011;58692;43.212;27.908;2023-06-10T07:40:44;11.20;;;4.75;;
71038;SDS011;58692;43.212;27.908;2023-06-10T07:43:10;12.43;;;5.27;;
71038;SDS011;58692;43.212;27.908;2023-06-10T07:45:36;12.45;;;5.10;;
71038;SDS011;58692;43.212;27.908;2023-06-10T07:48:01;11.30;;;4.97;;
71038;SDS011;58692;43.212;27.908;2023-06-10T07:50:27;11.00;;;4.73;;
71038;SDS011;58692;43.212;27.908;2023-06-10T07:52:52;12.80;;;4.68;;
71038;SDS011;58692;43.212;27.908;2023-06-10T07:55:18;11.20;;;4.50;;
71038;SDS011;58692;43.212;27.908;2023-06-10T07:57:43;9.67;;;4.10;;
71038;SDS011;58692;43.212;27.908;2023-06-10T08:00:09;10.53;;;4.30;;
71038;SDS011;58692;43.212;27.908;2023-06-10T08:02:35;8.80;;;4.10;;
71038;SDS011;58692;43.212;27.908;2023-06-10T08:05:00;9.88;;;4.47;;
71038;SDS011;58692;43.212;27.908;2023-06-10T08:07:25;11.33;;;5.00;;
71038;SDS011;58692;43.212;27.908;2023-06-10T08:09:51;11.93;;;4.93;;
71038;SDS011;58692;43.212;27.908;2023-06-10T08:12:17;9.32;;;4.68;;
71038;SDS011;58692;43.212;27.908;2023-06-10T08:14:43;10.70;;;4.20;;
71038;SDS011;58692;43.212;27.908;2023-06-10T08:17:09;12.73;;;3.93;;
71038;SDS011;58692;43.212;27.908;2023-06-10T08:19:34;10.23;;;3.87;;
71038;SDS011;58692;43.212;27.908;2023-06-10T08:21:59;8.77;;;3.67;;
71038;SDS011;58692;43.212;27.908;2023-06-10T08:24:25;8.97;;;3.37;;
71038;SDS011;58692;43.212;27.908;2023-06-10T08:26:50;8.37;;;3.70;;
71038;SDS011;58692;43.212;27.908;2023-06-10T08:29:16;8.77;;;4.33;;
71038;SDS011;58692;43.212;27.908;2023-06-10T08:31:42;8.40;;;3.80;;
71038;SDS011;58692;43.212;27.908;2023-06-10T08:34:08;8.55;;;3.88;;
71038;SDS011;58692;43.212;27.908;2023-06-10T08:36:34;11.82;;;3.78;;
71038;SDS011;58692;43.212;27.908;2023-06-10T08:39:00;9.82;;;3.53;;
71038;SDS011;58692;43.212;27.908;2023-06-10T08:41:28;6.97;;;3.40;;
71038;SDS011;58692;43.212;27.908;2023-06-10T08:43:58;7.40;;;3.42;;
71038;SDS011;58692;43.212;27.908;2023-06-10T08:46:32;8.50;;;3.40;;
71038;SDS011;58692;43.212;27.908;2023-06-10T08:48:59;9.82;;;3.65;;
71038;SDS011;58692;43.212;27.908;2023-06-10T08:51:28;8.20;;;3.70;;
71038;SDS011;58692;43.212;27.908;2023-06-10T08:54:01;7.57;;;3.33;;
71038;SDS011;58692;43.212;27.908;2023-06-10T08:56:30;8.38;;;3.03;;
71038;SDS011;58692;43.212;27.908;2023-06-10T08:59:01;10.65;;;3.53;;
71038;SDS011;58692;43.212;27.908;2023-06-10T09:01:27;13.97;;;4.17;;
71038;SDS011;58692;43.212;27.908;2023-06-10T09:03:53;8.68;;;3.42;;
71038;SDS011;58692;43.212;27.908;2023-06-10T09:06:19;12.23;;;4.10;;
71038;SDS011;58692;43.212;27.908;2023-06-10T09:08:45;9.03;;;3.60;;
71038;SDS011;58692;43.212;27.908;2023-06-10T09:11:11;7.82;;;3.90;;
71038;SDS011;58692;43.212;27.908;2023-06-10T09:13:37;7.93;;;3.73;;
71038;SDS011;58692;43.212;27.908;2023-06-10T09:16:02;14.07;;;3.80;;
71038;SDS011;58692;43.212;27.908;2023-06-10T09:18:28;13.13;;;4.03;;
71038;SDS011;58692;43.212;27.908;2023-06-10T09:20:54;10.73;;;3.97;;
71038;SDS011;58692;43.212;27.908;2023-06-10T09:23:20;7.73;;;3.60;;
71038;SDS011;58692;43.212;27.908;2023-06-10T09:25:48;7.85;;;3.60;;
71038;SDS011;58692;43.212;27.908;2023-06-10T09:28:21;8.80;;;3.47;;
71038;SDS011;58692;43.212;27.908;2023-06-10T09:30:47;8.27;;;3.67;;
71038;SDS011;58692;43.212;27.908;2023-06-10T09:33:13;10.48;;;4.10;;
71038;SDS011;58692;43.212;27.908;2023-06-10T09:35:45;11.63;;;3.60;;
71038;SDS011;58692;43.212;27.908;2023-06-10T09:38:14;9.23;;;3.60;;
71038;SDS011;58692;43.212;27.908;2023-06-10T09:40:52;8.27;;;3.78;;
71038;SDS011;58692;43.212;27.908;2023-06-10T09:43:18;7.30;;;3.60;;
71038;SDS011;58692;43.212;27.908;2023-06-10T09:45:44;7.80;;;3.80;;
71038;SDS011;58692;43.212;27.908;2023-06-10T09:48:13;7.70;;;3.40;;
71038;SDS011;58692;43.212;27.908;2023-06-10T09:50:42;7.40;;;3.40;;
71038;SDS011;58692;43.212;27.908;2023-06-10T09:53:10;8.67;;;3.53;;
71038;SDS011;58692;43.212;27.908;2023-06-10T09:55:37;7.65;;;3.30;;
71038;SDS011;58692;43.212;27.908;2023-06-10T09:58:04;9.13;;;3.85;;
71038;SDS011;58692;43.212;27.908;2023-06-10T10:00:31;8.73;;;3.70;;
71038;SDS011;58692;43.212;27.908;2023-06-10T10:02:58;6.72;;;3.60;;
71038;SDS011;58692;43.212;27.908;2023-06-10T10:05:23;6.72;;;3.33;;
71038;SDS011;58692;43.212;27.908;2023-06-10T10:07:49;10.20;;;3.77;;
71038;SDS011;58692;43.212;27.908;2023-06-10T10:10:17;7.53;;;3.40;;
71038;SDS011;58692;43.212;27.908;2023-06-10T10:12:45;6.35;;;3.15;;
71038;SDS011;58692;43.212;27.908;2023-06-10T10:15:11;11.23;;;3.30;;
71038;SDS011;58692;43.212;27.908;2023-06-10T10:17:41;8.77;;;3.30;;
71038;SDS011;58692;43.212;27.908;2023-06-10T10:20:14;9.13;;;3.50;;
71038;SDS011;58692;43.212;27.908;2023-06-10T10:22:45;10.07;;;3.78;;
71038;SDS011;58692;43.212;27.908;2023-06-10T10:25:15;10.65;;;3.75;;
71038;SDS011;58692;43.212;27.908;2023-06-10T10:27:52;9.67;;;3.73;;
71038;SDS011;58692;43.212;27.908;2023-06-10T10:30:22;7.72;;;3.45;;
71038;SDS011;58692;43.212;27.908;2023-06-10T10:35:30;10.88;;;4.13;;
71038;SDS011;58692;43.212;27.908;2023-06-10T10:37:58;9.35;;;3.80;;
71038;SDS011;58692;43.212;27.908;2023-06-10T10:40:23;9.30;;;3.83;;
71038;SDS011;58692;43.212;27.908;2023-06-10T10:42:50;9.15;;;3.90;;
71038;SDS011;58692;43.212;27.908;2023-06-10T10:45:17;7.75;;;3.55;;
71038;SDS011;58692;43.212;27.908;2023-06-10T10:47:44;7.90;;;3.77;;
71038;SDS011;58692;43.212;27.908;2023-06-10T10:50:15;7.72;;;3.60;;
71038;SDS011;58692;43.212;27.908;2023-06-10T10:55:25;7.72;;;3.42;;
71038;SDS011;58692;43.212;27.908;2023-06-10T10:58:02;8.85;;;3.55;;
71038;SDS011;58692;43.212;27.908;2023-06-10T11:00:30;9.93;;;3.97;;
71038;SDS011;58692;43.212;27.908;2023-06-10T11:02:57;8.90;;;3.67;;
71038;SDS011;58692;43.212;27.908;2023-06-10T11:05:37;9.48;;;3.88;;
71038;SDS011;58692;43.212;27.908;2023-06-10T11:08:05;7.75;;;3.72;;
71038;SDS011;58692;43.212;27.908;2023-06-10T11:10:33;9.30;;;3.80;;
71038;SDS011;58692;43.212;27.908;2023-06-10T11:12:59;16.17;;;4.17;;
71038;SDS011;58692;43.212;27.908;2023-06-10T11:15:29;9.15;;;3.85;;
71038;SDS011;58692;43.212;27.908;2023-06-10T11:31:25;9.20;;;3.67;;
71038;SDS011;58692;43.212;27.908;2023-06-10T11:33:56;9.52;;;3.92;;
71038;SDS011;58692;43.212;27.908;2023-06-10T11:36:23;7.93;;;3.92;;
71038;SDS011;58692;43.212;27.908;2023-06-10T11:38:50;8.63;;;3.90;;
71038;SDS011;58692;43.212;27.908;2023-06-10T11:41:20;9.50;;;3.92;;
71038;SDS011;58692;43.212;27.908;2023-06-10T11:43:46;8.37;;;3.80;;
71038;SDS011;58692;43.212;27.908;2023-06-10T11:46:12;8.30;;;3.75;;
71038;SDS011;58692;43.212;27.908;2023-06-10T11:48:39;6.78;;;3.50;;
71038;SDS011;58692;43.212;27.908;2023-06-10T11:51:06;8.67;;;3.60;;
71038;SDS011;58692;43.212;27.908;2023-06-10T11:53:32;9.52;;;3.40;;
71038;SDS011;58692;43.212;27.908;2023-06-10T11:55:58;9.85;;;3.75;;
71038;SDS011;58692;43.212;27.908;2023-06-10T11:58:24;14.37;;;3.90;;
71038;SDS011;58692;43.212;27.908;2023-06-10T12:00:51;10.02;;;4.00;;
71038;SDS011;58692;43.212;27.908;2023-06-10T12:03:18;9.23;;;4.00;;
71038;SDS011;58692;43.212;27.908;2023-06-10T12:08:27;10.47;;;4.17;;
71038;SDS011;58692;43.212;27.908;2023-06-10T12:10:54;7.90;;;4.03;;
71038;SDS011;58692;43.212;27.908;2023-06-10T12:13:20;11.98;;;4.30;;
71038;SDS011;58692;43.212;27.908;2023-06-10T12:15:46;12.27;;;4.03;;
71038;SDS011;58692;43.212;27.908;2023-06-10T12:18:21;9.48;;;4.00;;
71038;SDS011;58692;43.212;27.908;2023-06-10T12:20:48;7.83;;;3.70;;
71038;SDS011;58692;43.212;27.908;2023-06-10T12:23:16;6.78;;;3.60;;
71038;SDS011;58692;43.212;27.908;2023-06-10T12:25:52;7.82;;;4.20;;
71038;SDS011;58692;43.212;27.908;2023-06-10T12:28:26;7.60;;;3.85;;
71038;SDS011;58692;43.212;27.908;2023-06-10T12:31:05;9.30;;;3.75;;
71038;SDS011;58692;43.212;27.908;2023-06-10T12:33:32;9.80;;;4.40;;
71038;SDS011;58692;43.212;27.908;2023-06-10T12:35:58;8.45;;;3.97;;
71038;SDS011;58692;43.212;27.908;2023-06-10T12:38:24;10.77;;;4.33;;
71038;SDS011;58692;43.212;27.908;2023-06-10T12:40:52;10.70;;;4.20;;
71038;SDS011;58692;43.212;27.908;2023-06-10T12:43:20;10.85;;;4.30;;
71038;SDS011;58692;43.212;27.908;2023-06-10T12:45:46;14.20;;;4.30;;
71038;SDS011;58692;43.212;27.908;2023-06-10T12:48:20;11.20;;;4.30;;
71038;SDS011;58692;43.212;27.908;2023-06-10T12:50:51;8.68;;;4.05;;
71038;SDS011;58692;43.212;27.908;2023-06-10T12:53:18;9.67;;;4.30;;
71038;SDS011;58692;43.212;27.908;2023-06-10T12:55:44;7.75;;;4.15;;
71038;SDS011;58692;43.212;27.908;2023-06-10T12:58:11;12.23;;;4.00;;
71038;SDS011;58692;43.212;27.908;2023-06-10T13:00:37;12.40;;;4.25;;
71038;SDS011;58692;43.212;27.908;2023-06-10T13:03:02;10.73;;;4.40;;
71038;SDS011;58692;43.212;27.908;2023-06-10T13:05:30;8.68;;;4.20;;
71038;SDS011;58692;43.212;27.908;2023-06-10T13:07:56;12.88;;;4.35;;
71038;SDS011;58692;43.212;27.908;2023-06-10T13:10:23;9.45;;;3.72;;
71038;SDS011;58692;43.212;27.908;2023-06-10T13:12:49;11.83;;;4.33;;
71038;SDS011;58692;43.212;27.908;2023-06-10T13:15:15;15.25;;;4.47;;
71038;SDS011;58692;43.212;27.908;2023-06-10T13:17:42;10.70;;;4.30;;
71038;SDS011;58692;43.212;27.908;2023-06-10T13:20:08;8.00;;;3.90;;
71038;SDS011;58692;43.212;27.908;2023-06-10T13:22:34;9.33;;;3.93;;
71038;SDS011;58692;43.212;27.908;2023-06-10T13:25:02;9.70;;;3.78;;
71038;SDS011;58692;43.212;27.908;2023-06-10T13:27:28;10.10;;;4.20;;
71038;SDS011;58692;43.212;27.908;2023-06-10T13:29:54;8.87;;;4.20;;
71038;SDS011;58692;43.212;27.908;2023-06-10T13:32:20;11.80;;;4.40;;
71038;SDS011;58692;43.212;27.908;2023-06-10T13:34:46;10.90;;;4.50;;
71038;SDS011;58692;43.212;27.908;2023-06-10T13:37:11;9.00;;;4.03;;
71038;SDS011;58692;43.212;27.908;2023-06-10T13:39:38;10.55;;;3.78;;
71038;SDS011;58692;43.212;27.908;2023-06-10T13:42:04;7.40;;;4.07;;
71038;SDS011;58692;43.212;27.908;2023-06-10T13:44:32;9.40;;;3.87;;
71038;SDS011;58692;43.212;27.908;2023-06-10T13:47:01;9.73;;;4.57;;
71038;SDS011;58692;43.212;27.908;2023-06-10T13:49:28;6.53;;;3.38;;
71038;SDS011;58692;43.212;27.908;2023-06-10T13:51:54;9.07;;;3.50;;
71038;SDS011;58692;43.212;27.908;2023-06-10T13:54:19;9.10;;;3.37;;
71038;SDS011;58692;43.212;27.908;2023-06-10T13:56:46;6.47;;;3.50;;
71038;SDS011;58692;43.212;27.908;2023-06-10T13:59:12;10.80;;;3.55;;
71038;SDS011;58692;43.212;27.908;2023-06-10T14:01:38;7.03;;;3.00;;
71038;SDS011;58692;43.212;27.908;2023-06-10T14:04:05;9.32;;;3.60;;
71038;SDS011;58692;43.212;27.908;2023-06-10T14:06:31;9.13;;;3.42;;
71038;SDS011;58692;43.212;27.908;2023-06-10T14:08:58;7.93;;;3.20;;
71038;SDS011;58692;43.212;27.908;2023-06-10T14:11:24;5.40;;;2.70;;
71038;SDS011;58692;43.212;27.908;2023-06-10T14:13:50;7.70;;;3.00;;
71038;SDS011;58692;43.212;27.908;2023-06-10T14:16:15;8.53;;;3.30;;
71038;SDS011;58692;43.212;27.908;2023-06-10T14:18:41;8.40;;;3.10;;
71038;SDS011;58692;43.212;27.908;2023-06-10T14:21:06;7.82;;;3.50;;
71038;SDS011;58692;43.212;27.908;2023-06-10T14:23:32;10.00;;;3.43;;
71038;SDS011;58692;43.212;27.908;2023-06-10T14:25:57;7.50;;;2.97;;
71038;SDS011;58692;43.212;27.908;2023-06-10T14:28:23;9.63;;;3.45;;
71038;SDS011;58692;43.212;27.908;2023-06-10T14:30:51;8.98;;;3.50;;
71038;SDS011;58692;43.212;27.908;2023-06-10T14:33:16;10.18;;;3.60;;
71038;SDS011;58692;43.212;27.908;2023-06-10T14:35:42;8.47;;;3.40;;
71038;SDS011;58692;43.212;27.908;2023-06-10T14:38:08;8.43;;;3.50;;
71038;SDS011;58692;43.212;27.908;2023-06-10T14:40:33;9.23;;;3.37;;